Time;durP1;ratioP1;P1;durP2;ratioP2;P2;SDS_P1;SDS_P2;PMS_P1;PMS_P2;Temp;Humidity;BMP_temperature;BMP_pressure;BME280_temperature;BME280_humidity;BME280_pressure;Samples;Min_cycle;Max_cycle;Signal;HPM_P1;HPM_P2
2023/03/10 00:00:49;;;;;;;;;;;2.40;99.90;;;;;;5002219;28;19925;-80
2023/03/10 00:03:15;;;;;;;;;;;2.40;99.90;;;;;;5017659;28;19999;-80
2023/03/10 00:05:40;;;;;;;;;;;2.40;99.90;;;;;;4995161;28;19981;-80
2023/03/10 00:08:06;;;;;;;;;;;2.30;99.90;;;;;;4992902;28;20301;-81
2023/03/10 00:10:32;;;;;;;;;;;2.40;99.90;;;;;;4990817;28;19925;-80
2023/03/10 00:12:57;;;;;;;;;;;2.30;99.90;;;;;;5003317;28;19940;-80
2023/03/10 00:15:23;;;;;;;;;;;2.30;99.90;;;;;;4991577;28;19930;-81
2023/03/10 00:17:49;;;;;;;;;;;2.30;99.90;;;;;;5009364;28;19983;-81
2023/03/10 00:20:15;;;;;;;;;;;2.30;99.90;;;;;;5010898;28;19929;-81
2023/03/10 00:22:40;;;;;;;;;;;2.30;99.90;;;;;;5009428;28;19933;-81
2023/03/10 00:25:07;;;;;;;;;;;2.30;99.90;;;;;;4993283;28;19926;-81
2023/03/10 00:27:33;;;;;;;;;;;2.30;99.90;;;;;;5009264;28;19929;-80
2023/03/10 00:29:59;;;;;;;;;;;2.30;99.90;;;;;;5000700;28;19926;-79
2023/03/10 00:32:25;;;;;;;;;;;2.30;99.90;;;;;;5011344;28;19940;-79
2023/03/10 00:34:50;;;;;;;;;;;2.20;99.90;;;;;;5000266;28;19955;-81
2023/03/10 00:37:17;;;;;;;;;;;2.30;99.90;;;;;;5016436;28;19930;-80
2023/03/10 00:39:43;;;;;;;;;;;2.20;99.90;;;;;;4990224;28;20064;-81
2023/03/10 00:42:09;;;;;;;;;;;2.20;99.90;;;;;;4991777;28;20016;-81
2023/03/10 00:44:38;;;;;;;;;;;2.20;99.90;;;;;;4991029;28;19947;-81
2023/03/10 00:47:04;;;;;;;;;;;2.20;99.90;;;;;;4998836;28;19932;-80
2023/03/10 00:49:29;;;;;;;;;;;2.20;99.90;;;;;;5009113;28;19930;-80
2023/03/10 00:51:55;;;;;;;;;;;2.10;99.90;;;;;;4990387;28;19925;-81
2023/03/10 00:54:20;;;;;;;;;;;2.20;99.90;;;;;;4995864;28;19933;-81
2023/03/10 00:56:46;;;;;;;;;;;2.20;99.90;;;;;;5014024;28;19952;-82
2023/03/10 00:59:12;;;;;;;;;;;2.20;99.90;;;;;;5014054;28;20305;-82
2023/03/10 01:01:39;;;;;;;;;;;2.10;99.90;;;;;;5008397;28;19977;-80
2023/03/10 01:04:06;;;;;;;;;;;2.10;99.90;;;;;;4995932;28;19933;-81
2023/03/10 01:06:32;;;;;;;;;;;2.10;99.90;;;;;;4996286;28;20004;-81
2023/03/10 01:08:57;;;;;;;;;;;2.10;99.90;;;;;;4976462;28;19932;-81
2023/03/10 01:11:24;;;;;;;;;;;2.10;99.90;;;;;;5008761;28;20427;-81
2023/03/10 01:13:50;;;;;;;;;;;2.10;99.90;;;;;;4995707;28;20008;-81
2023/03/10 01:16:15;;;;;;;;;;;2.10;99.90;;;;;;4995369;28;20040;-81
2023/03/10 01:18:42;;;;;;;;;;;2.10;99.90;;;;;;4995573;28;19925;-81
2023/03/10 01:21:17;;;;;;;;;;;2.10;99.90;;;;;;5008119;28;19933;-81
2023/03/10 01:23:43;;;;;;;;;;;2.10;99.90;;;;;;4986069;28;20394;-80
2023/03/10 01:26:08;;;;;;;;;;;2.10;99.90;;;;;;5013070;28;19934;-81
2023/03/10 01:28:34;;;;;;;;;;;2.10;99.90;;;;;;4995470;28;19935;-81
2023/03/10 01:30:59;;;;;;;;;;;2.10;99.90;;;;;;5016410;28;19965;-81
2023/03/10 01:33:25;;;;;;;;;;;2.10;99.90;;;;;;4988936;28;19926;-81
2023/03/10 01:35:50;;;;;;;;;;;2.10;99.90;;;;;;4989793;28;20328;-82
2023/03/10 01:38:16;;;;;;;;;;;2.10;99.90;;;;;;4985564;28;19929;-81
2023/03/10 01:40:46;;;;;;;;;;;2.10;99.90;;;;;;4984745;28;19925;-81
2023/03/10 01:43:15;;;;;;;;;;;2.10;99.90;;;;;;4994323;28;19975;-81
2023/03/10 01:45:43;;;;;;;;;;;2.10;99.90;;;;;;4984973;28;19936;-81
2023/03/10 01:48:09;;;;;;;;;;;2.10;99.90;;;;;;4984663;28;19926;-81
2023/03/10 01:50:35;;;;;;;;;;;2.10;99.90;;;;;;5015379;28;19968;-81
2023/03/10 01:53:00;;;;;;;;;;;2.10;99.90;;;;;;4995313;28;19979;-82
2023/03/10 01:55:29;;;;;;;;;;;2.10;99.90;;;;;;4983738;28;19926;-81
2023/03/10 01:57:55;;;;;;;;;;;2.10;99.90;;;;;;4985360;28;19929;-81
2023/03/10 02:00:22;;;;;;;;;;;2.10;99.90;;;;;;5024594;28;19945;-82
2023/03/10 02:02:51;;;;;;;;;;;2.10;99.90;;;;;;5010107;28;19936;-81
2023/03/10 02:05:16;;;;;;;;;;;2.10;99.90;;;;;;4993435;28;19979;-81
2023/03/10 02:07:42;;;;;;;;;;;2.10;99.90;;;;;;4977891;28;19926;-81
2023/03/10 02:10:09;;;;;;;;;;;2.10;99.90;;;;;;4974325;28;19926;-81
2023/03/10 02:12:35;;;;;;;;;;;2.10;99.90;;;;;;4984737;28;19968;-80
2023/03/10 02:15:01;;;;;;;;;;;2.10;99.90;;;;;;5013712;28;20259;-81
2023/03/10 02:17:27;;;;;;;;;;;2.10;99.90;;;;;;5009335;28;19925;-81
2023/03/10 02:19:59;;;;;;;;;;;2.10;99.90;;;;;;5012934;28;20385;-81
2023/03/10 02:22:24;;;;;;;;;;;2.10;99.90;;;;;;4995108;28;19940;-81
2023/03/10 02:25:02;;;;;;;;;;;2.10;99.90;;;;;;4990623;28;19925;-82
2023/03/10 02:27:33;;;;;;;;;;;2.10;99.90;;;;;;4996702;28;20048;-81
2023/03/10 02:29:58;;;;;;;;;;;2.10;99.90;;;;;;4981779;28;19932;-81
2023/03/10 02:32:24;;;;;;;;;;;2.20;99.90;;;;;;4987359;28;20305;-81
2023/03/10 02:34:50;;;;;;;;;;;2.20;99.90;;;;;;4982399;28;19929;-82
2023/03/10 02:37:34;;;;;;;;;;;2.20;99.90;;;;;;4993376;28;19926;-81
2023/03/10 02:40:00;;;;;;;;;;;2.10;99.90;;;;;;4967765;28;19926;-81
2023/03/10 02:42:28;;;;;;;;;;;2.20;99.90;;;;;;4993297;28;19940;-81
2023/03/10 02:44:54;;;;;;;;;;;2.20;99.90;;;;;;4994532;28;19985;-81
2023/03/10 02:47:19;;;;;;;;;;;2.20;99.90;;;;;;5010318;28;20024;-81
2023/03/10 02:49:45;;;;;;;;;;;2.20;99.90;;;;;;4992735;28;20008;-81
2023/03/10 02:52:17;;;;;;;;;;;2.20;99.90;;;;;;4993871;28;19948;-81
2023/03/10 02:54:42;;;;;;;;;;;2.10;99.90;;;;;;4993082;28;20012;-80
2023/03/10 02:57:08;;;;;;;;;;;2.20;99.90;;;;;;4993076;28;19925;-81
2023/03/10 02:59:33;;;;;;;;;;;2.20;99.90;;;;;;4985035;28;19926;-81
2023/03/10 03:01:59;;;;;;;;;;;2.20;99.90;;;;;;5010286;28;19988;-80
2023/03/10 03:04:24;;;;;;;;;;;2.20;99.90;;;;;;5000998;28;20308;-80
2023/03/10 03:06:50;;;;;;;;;;;2.20;99.90;;;;;;4992377;28;19931;-80
2023/03/10 03:09:15;;;;;;;;;;;2.20;99.90;;;;;;4971583;28;20279;-81
2023/03/10 03:11:41;;;;;;;;;;;2.20;99.90;;;;;;4990246;28;19996;-81
2023/03/10 03:14:06;;;;;;;;;;;2.20;99.90;;;;;;4993128;28;20293;-81
2023/03/10 03:16:32;;;;;;;;;;;2.20;99.90;;;;;;5009518;28;19933;-81
2023/03/10 03:18:58;;;;;;;;;;;2.20;99.90;;;;;;4989550;28;19926;-80
2023/03/10 03:21:26;;;;;;;;;;;2.20;99.90;;;;;;4972621;28;19934;-81
2023/03/10 03:23:52;;;;;;;;;;;2.20;99.90;;;;;;4989664;28;19929;-81
2023/03/10 03:26:23;;;;;;;;;;;2.20;99.90;;;;;;4992112;28;19971;-81
2023/03/10 03:28:48;;;;;;;;;;;2.20;99.90;;;;;;4990735;28;19929;-82
2023/03/10 03:31:19;;;;;;;;;;;2.20;99.90;;;;;;4988618;28;19937;-82
2023/03/10 03:33:45;;;;;;;;;;;2.10;99.90;;;;;;4973936;28;19925;-83
2023/03/10 03:36:11;;;;;;;;;;;2.20;99.90;;;;;;4990674;28;19932;-82
2023/03/10 03:38:36;;;;;;;;;;;2.20;99.90;;;;;;4990225;28;19926;-81
2023/03/10 03:41:02;;;;;;;;;;;2.20;99.90;;;;;;4989359;28;19926;-82
2023/03/10 03:43:28;;;;;;;;;;;2.20;99.90;;;;;;4981802;28;20465;-82
2023/03/10 03:45:54;;;;;;;;;;;2.20;99.90;;;;;;4973537;28;19929;-82
2023/03/10 03:48:20;;;;;;;;;;;2.20;99.90;;;;;;4987508;28;19926;-82
2023/03/10 03:50:47;;;;;;;;;;;2.20;99.90;;;;;;4984845;28;20448;-82
2023/03/10 03:53:16;;;;;;;;;;;2.10;99.90;;;;;;4972447;28;19926;-82
2023/03/10 03:55:41;;;;;;;;;;;2.20;99.90;;;;;;4948708;28;19937;-82
2023/03/10 03:58:10;;;;;;;;;;;2.20;99.90;;;;;;4991308;28;19926;-82
2023/03/10 04:00:37;;;;;;;;;;;2.20;99.90;;;;;;4982609;28;19952;-82
2023/03/10 04:03:03;;;;;;;;;;;2.20;99.90;;;;;;4973579;28;19961;-82
2023/03/10 04:05:29;;;;;;;;;;;2.20;99.90;;;;;;4973416;28;19972;-83
2023/03/10 04:07:54;;;;;;;;;;;2.20;99.90;;;;;;4990282;28;19984;-83
2023/03/10 04:10:22;;;;;;;;;;;2.10;99.90;;;;;;4974115;28;19926;-82
2023/03/10 04:12:48;;;;;;;;;;;2.10;99.90;;;;;;4986698;28;19936;-82
2023/03/10 04:15:14;;;;;;;;;;;2.10;99.90;;;;;;4984540;28;19926;-82
2023/03/10 04:17:39;;;;;;;;;;;2.10;99.90;;;;;;4973866;28;19933;-81
2023/03/10 04:20:07;;;;;;;;;;;2.10;99.90;;;;;;4982786;28;20336;-81
2023/03/10 04:22:32;;;;;;;;;;;2.10;99.90;;;;;;4976062;28;19977;-81
2023/03/10 04:24:58;;;;;;;;;;;2.20;99.90;;;;;;4966108;28;19988;-82
2023/03/10 04:27:24;;;;;;;;;;;2.10;99.90;;;;;;4955978;28;20072;-81
2023/03/10 04:29:49;;;;;;;;;;;2.10;99.90;;;;;;4949987;28;20028;-80
2023/03/10 04:32:15;;;;;;;;;;;2.10;99.90;;;;;;4958223;28;19925;-80
2023/03/10 04:34:41;;;;;;;;;;;2.10;99.90;;;;;;4991543;28;19934;-81
2023/03/10 04:37:07;;;;;;;;;;;2.10;99.90;;;;;;4991001;28;19977;-81
2023/03/10 04:39:33;;;;;;;;;;;2.10;99.90;;;;;;4989893;28;20276;-80
2023/03/10 04:41:59;;;;;;;;;;;2.10;99.90;;;;;;4989996;28;19926;-81
2023/03/10 04:44:24;;;;;;;;;;;2.10;99.90;;;;;;4981431;28;19945;-80
2023/03/10 04:46:50;;;;;;;;;;;2.10;99.90;;;;;;4982157;28;19926;-80
2023/03/10 04:49:15;;;;;;;;;;;2.10;99.90;;;;;;4980669;28;19937;-80
2023/03/10 04:51:41;;;;;;;;;;;2.10;99.90;;;;;;4978037;28;20055;-81
2023/03/10 04:54:07;;;;;;;;;;;2.10;99.90;;;;;;4990263;28;19926;-81
2023/03/10 04:56:32;;;;;;;;;;;2.10;99.90;;;;;;4997039;28;19925;-81
2023/03/10 04:58:58;;;;;;;;;;;2.10;99.90;;;;;;4980495;28;19976;-81
2023/03/10 05:01:23;;;;;;;;;;;2.10;99.90;;;;;;4987960;28;19980;-80
2023/03/10 05:03:49;;;;;;;;;;;2.10;99.90;;;;;;4982353;28;19926;-82
2023/03/10 05:06:19;;;;;;;;;;;2.10;99.90;;;;;;4971663;28;19981;-81
2023/03/10 05:08:45;;;;;;;;;;;2.10;99.90;;;;;;4981139;28;20390;-81
2023/03/10 05:11:11;;;;;;;;;;;2.10;99.90;;;;;;4981894;28;20441;-81
2023/03/10 05:13:36;;;;;;;;;;;2.10;99.90;;;;;;4988890;28;19934;-83
2023/03/10 05:16:02;;;;;;;;;;;2.10;99.90;;;;;;4997589;28;20285;-83
2023/03/10 05:18:28;;;;;;;;;;;2.10;99.90;;;;;;4961037;28;19926;-82
2023/03/10 05:20:54;;;;;;;;;;;2.10;99.90;;;;;;4975678;28;19929;-82
2023/03/10 05:23:20;;;;;;;;;;;2.10;99.90;;;;;;4987599;28;19926;-82
2023/03/10 05:25:46;;;;;;;;;;;2.10;99.90;;;;;;4986778;28;19925;-82
2023/03/10 05:28:11;;;;;;;;;;;2.10;99.90;;;;;;4983741;28;19925;-81
2023/03/10 05:30:37;;;;;;;;;;;2.10;99.90;;;;;;4988891;28;20836;-81
2023/03/10 05:33:03;;;;;;;;;;;2.10;99.90;;;;;;4973478;28;20016;-81
2023/03/10 05:35:28;;;;;;;;;;;2.10;99.90;;;;;;4978268;28;19983;-81
2023/03/10 05:37:54;;;;;;;;;;;2.00;99.90;;;;;;4992748;28;20364;-82
2023/03/10 05:40:20;;;;;;;;;;;2.00;99.90;;;;;;4959311;28;19933;-81
2023/03/10 05:42:46;;;;;;;;;;;2.00;99.90;;;;;;4993544;28;19933;-81
2023/03/10 05:45:12;;;;;;;;;;;2.00;99.90;;;;;;4974780;28;19949;-81
2023/03/10 05:47:38;;;;;;;;;;;1.90;99.90;;;;;;4985541;28;20694;-83
2023/03/10 05:50:04;;;;;;;;;;;1.90;99.90;;;;;;4976161;28;19985;-83
2023/03/10 05:52:30;;;;;;;;;;;1.90;99.90;;;;;;4987091;28;19933;-83
2023/03/10 05:54:55;;;;;;;;;;;1.90;99.90;;;;;;4991957;28;19930;-83
2023/03/10 05:57:21;;;;;;;;;;;1.90;99.90;;;;;;4978509;28;19927;-81
2023/03/10 05:59:51;;;;;;;;;;;1.80;99.90;;;;;;4988297;28;19926;-82
2023/03/10 06:02:17;;;;;;;;;;;1.80;99.90;;;;;;4973436;28;19925;-82
2023/03/10 06:04:43;;;;;;;;;;;1.80;99.90;;;;;;4988656;28;19930;-82
2023/03/10 06:07:08;;;;;;;;;;;1.80;99.90;;;;;;4979309;28;19925;-83
2023/03/10 06:09:34;;;;;;;;;;;1.70;99.90;;;;;;4988162;28;19934;-82
2023/03/10 06:12:00;;;;;;;;;;;1.70;99.90;;;;;;4974954;28;19926;-82
2023/03/10 06:14:25;;;;;;;;;;;1.70;99.90;;;;;;4990492;28;19926;-82
2023/03/10 06:16:54;;;;;;;;;;;1.60;99.90;;;;;;4990250;28;19932;-82
2023/03/10 06:19:20;;;;;;;;;;;1.60;99.90;;;;;;4990839;28;19952;-81
2023/03/10 06:21:46;;;;;;;;;;;1.60;99.90;;;;;;4972985;28;19929;-83
2023/03/10 06:24:11;;;;;;;;;;;1.60;99.90;;;;;;4993160;28;19926;-81
2023/03/10 06:26:37;;;;;;;;;;;1.60;99.90;;;;;;5003912;28;19926;-82
2023/03/10 06:29:03;;;;;;;;;;;1.60;99.90;;;;;;5004377;28;20048;-81
2023/03/10 06:31:29;;;;;;;;;;;1.50;99.90;;;;;;4992785;28;20349;-80
2023/03/10 06:33:54;;;;;;;;;;;1.60;99.90;;;;;;4988928;28;19956;-79
2023/03/10 06:36:21;;;;;;;;;;;1.50;99.90;;;;;;4987428;28;19977;-79
2023/03/10 06:38:47;;;;;;;;;;;1.50;99.90;;;;;;4998740;28;19929;-79
2023/03/10 06:41:13;;;;;;;;;;;1.50;99.90;;;;;;4968003;28;19933;-80
2023/03/10 06:43:39;;;;;;;;;;;1.50;99.90;;;;;;4995228;28;19972;-80
2023/03/10 06:46:06;;;;;;;;;;;1.60;99.90;;;;;;4983898;28;19930;-80
2023/03/10 06:48:32;;;;;;;;;;;1.50;99.90;;;;;;4993484;28;19967;-80
2023/03/10 06:50:57;;;;;;;;;;;1.50;99.90;;;;;;4989297;28;19933;-80
2023/03/10 06:53:23;;;;;;;;;;;1.50;99.90;;;;;;4992164;28;19978;-81
2023/03/10 06:56:00;;;;;;;;;;;1.50;99.90;;;;;;4989649;28;19926;-80
2023/03/10 06:58:25;;;;;;;;;;;1.40;99.90;;;;;;4961071;28;19926;-80
2023/03/10 07:00:51;;;;;;;;;;;1.40;99.90;;;;;;4975551;28;19930;-80
2023/03/10 07:03:17;;;;;;;;;;;1.40;99.90;;;;;;4976737;28;20009;-80
2023/03/10 07:05:43;;;;;;;;;;;1.30;99.90;;;;;;4965061;28;19932;-80
2023/03/10 07:08:08;;;;;;;;;;;1.30;99.90;;;;;;4986965;28;19926;-81
2023/03/10 07:10:34;;;;;;;;;;;1.30;99.90;;;;;;4987129;28;20305;-81
2023/03/10 07:13:01;;;;;;;;;;;1.30;99.90;;;;;;4982398;28;19956;-80
2023/03/10 07:15:27;;;;;;;;;;;1.30;99.90;;;;;;4991186;28;19926;-81
2023/03/10 07:17:55;;;;;;;;;;;1.20;99.90;;;;;;4990785;28;20278;-81
2023/03/10 07:20:21;;;;;;;;;;;1.30;99.90;;;;;;4993813;28;19948;-81
2023/03/10 07:22:46;;;;;;;;;;;1.20;99.90;;;;;;4987639;28;20013;-81
2023/03/10 07:25:12;;;;;;;;;;;1.20;99.90;;;;;;4954326;28;20370;-81
2023/03/10 07:27:37;;;;;;;;;;;1.20;99.90;;;;;;4974541;28;20369;-81
2023/03/10 07:30:03;;;;;;;;;;;1.20;99.90;;;;;;4992245;28;19951;-81
2023/03/10 07:32:29;;;;;;;;;;;1.20;99.90;;;;;;4989711;28;20447;-81
2023/03/10 07:34:54;;;;;;;;;;;1.20;99.90;;;;;;4974229;28;21127;-81
2023/03/10 07:37:20;;;;;;;;;;;1.20;99.90;;;;;;4974026;28;19933;-81
2023/03/10 07:39:45;;;;;;;;;;;1.20;99.90;;;;;;4972992;28;19933;-82
2023/03/10 07:42:10;;;;;;;;;;;1.20;99.90;;;;;;4991321;28;20393;-81
2023/03/10 07:44:36;;;;;;;;;;;1.20;99.90;;;;;;4956013;28;19962;-81
2023/03/10 07:47:02;;;;;;;;;;;1.20;99.90;;;;;;4977520;28;19929;-82
2023/03/10 07:49:27;;;;;;;;;;;1.20;99.90;;;;;;4989511;28;20299;-81
2023/03/10 07:51:53;;;;;;;;;;;1.30;99.90;;;;;;4978030;28;20506;-81
2023/03/10 07:54:18;;;;;;;;;;;1.30;99.90;;;;;;4979383;28;19926;-81
2023/03/10 07:56:44;;;;;;;;;;;1.30;99.90;;;;;;4996666;28;19930;-81
2023/03/10 07:59:09;;;;;;;;;;;1.20;99.90;;;;;;4977891;28;19933;-80
2023/03/10 08:01:35;;;;;;;;;;;1.30;99.90;;;;;;4995368;28;20314;-81
2023/03/10 08:04:00;;;;;;;;;;;1.30;99.90;;;;;;4973302;28;20906;-81
2023/03/10 08:06:27;;;;;;;;;;;1.30;99.90;;;;;;4989739;28;20019;-81
2023/03/10 08:08:52;;;;;;;;;;;1.30;99.90;;;;;;4966684;28;19926;-81
2023/03/10 08:11:18;;;;;;;;;;;1.40;99.90;;;;;;4996882;28;19926;-80
2023/03/10 08:13:46;;;;;;;;;;;1.40;99.90;;;;;;4983998;28;19949;-81
2023/03/10 08:16:13;;;;;;;;;;;1.40;99.90;;;;;;4988910;28;19926;-81
2023/03/10 08:18:39;;;;;;;;;;;1.40;99.90;;;;;;4975210;28;20303;-81
2023/03/10 08:21:05;;;;;;;;;;;1.50;99.90;;;;;;4988397;28;19930;-81
2023/03/10 08:23:31;;;;;;;;;;;1.50;99.90;;;;;;4988806;28;19926;-81
2023/03/10 08:25:58;;;;;;;;;;;1.50;99.90;;;;;;4988786;28;20532;-81
2023/03/10 08:28:24;;;;;;;;;;;1.50;99.90;;;;;;4981814;28;19934;-81
2023/03/10 08:30:49;;;;;;;;;;;1.60;99.90;;;;;;4983706;28;19929;-81
2023/03/10 08:33:15;;;;;;;;;;;1.60;99.90;;;;;;4972169;28;19937;-81
2023/03/10 08:35:40;;;;;;;;;;;1.50;99.90;;;;;;4988541;28;19973;-81
2023/03/10 08:38:08;;;;;;;;;;;1.50;99.90;;;;;;4956798;28;19972;-81
2023/03/10 08:40:34;;;;;;;;;;;1.50;99.90;;;;;;4972978;28;19925;-82
2023/03/10 08:42:59;;;;;;;;;;;1.50;99.90;;;;;;4967529;28;19969;-81
2023/03/10 08:45:25;;;;;;;;;;;1.60;99.90;;;;;;4972783;28;19926;-81
2023/03/10 08:47:50;;;;;;;;;;;1.60;99.90;;;;;;4963353;28;20357;-82
2023/03/10 08:50:16;;;;;;;;;;;1.60;99.90;;;;;;4986198;28;20313;-81
2023/03/10 08:52:41;;;;;;;;;;;1.60;99.90;;;;;;4974683;28;19988;-81
2023/03/10 08:55:07;;;;;;;;;;;1.60;99.90;;;;;;4972471;28;19926;-81
2023/03/10 08:57:32;;;;;;;;;;;1.70;99.90;;;;;;4975937;28;20391;-81
2023/03/10 08:59:58;;;;;;;;;;;1.70;99.90;;;;;;4983359;28;20413;-81
2023/03/10 09:02:24;;;;;;;;;;;1.70;99.90;;;;;;4975281;28;19945;-81
2023/03/10 09:04:49;;;;;;;;;;;1.70;99.90;;;;;;4989057;28;19926;-81
2023/03/10 09:07:15;;;;;;;;;;;1.80;99.90;;;;;;4977771;28;19977;-82
2023/03/10 09:09:41;;;;;;;;;;;1.70;99.90;;;;;;4989234;28;19973;-82
2023/03/10 09:12:08;;;;;;;;;;;1.80;99.90;;;;;;4960872;28;19926;-82
2023/03/10 09:14:36;;;;;;;;;;;1.80;99.90;;;;;;4993342;28;19930;-82
2023/03/10 09:17:02;;;;;;;;;;;1.80;99.90;;;;;;4984698;28;19933;-82
2023/03/10 09:19:28;;;;;;;;;;;1.80;99.90;;;;;;4963633;28;20391;-82
2023/03/10 09:21:56;;;;;;;;;;;1.90;99.90;;;;;;4971554;28;19930;-82
2023/03/10 09:24:22;;;;;;;;;;;1.90;99.90;;;;;;4988798;28;20377;-81
2023/03/10 09:26:48;;;;;;;;;;;1.90;99.90;;;;;;4976498;28;20313;-82
2023/03/10 09:29:13;;;;;;;;;;;1.90;99.90;;;;;;4962856;28;19926;-82
2023/03/10 09:31:39;;;;;;;;;;;1.90;99.90;;;;;;4979286;28;20008;-81
2023/03/10 09:34:05;;;;;;;;;;;1.90;99.90;;;;;;4976315;28;19926;-82
2023/03/10 09:36:31;;;;;;;;;;;1.90;99.90;;;;;;4988398;28;19930;-82
2023/03/10 09:38:57;;;;;;;;;;;1.80;99.90;;;;;;4991719;28;19972;-80
2023/03/10 09:41:29;;;;;;;;;;;1.80;99.90;;;;;;4989299;28;20317;-81
2023/03/10 09:44:01;;;;;;;;;;;1.80;99.90;;;;;;4992262;28;20027;-81
2023/03/10 09:46:49;;;;;;;;;;;1.90;99.90;;;;;;4972208;28;20349;-82
2023/03/10 09:49:19;;;;;;;;;;;1.90;99.90;;;;;;4960535;28;20527;-82
2023/03/10 09:51:46;;;;;;;;;;;1.80;99.90;;;;;;4973546;28;20364;-82
2023/03/10 09:54:24;;;;;;;;;;;1.90;99.90;;;;;;4979648;28;19972;-82
2023/03/10 09:56:50;;;;;;;;;;;1.90;99.90;;;;;;5003703;28;20011;-82
2023/03/10 09:59:20;;;;;;;;;;;1.90;99.90;;;;;;4950086;28;19938;-82
2023/03/10 10:01:47;;;;;;;;;;;1.90;99.90;;;;;;4989548;28;19926;-81
2023/03/10 10:04:16;;;;;;;;;;;2.00;99.90;;;;;;5006179;28;19930;-81
2023/03/10 10:06:43;;;;;;;;;;;2.00;99.90;;;;;;4975919;28;19964;-82
2023/03/10 10:09:22;;;;;;;;;;;2.00;99.90;;;;;;4973589;28;19926;-82
2023/03/10 10:11:48;;;;;;;;;;;2.00;99.90;;;;;;4974508;28;19937;-81
2023/03/10 10:14:18;;;;;;;;;;;2.10;99.90;;;;;;4990979;28;19929;-81
2023/03/10 10:16:55;;;;;;;;;;;2.10;99.90;;;;;;4969264;28;19926;-81
2023/03/10 10:19:23;;;;;;;;;;;2.10;99.90;;;;;;4970173;28;19952;-82
2023/03/10 10:21:48;;;;;;;;;;;2.10;99.90;;;;;;5004922;28;19926;-81
2023/03/10 10:24:14;;;;;;;;;;;2.10;99.90;;;;;;4995862;28;20345;-81
2023/03/10 10:26:40;;;;;;;;;;;2.00;99.90;;;;;;4975119;28;19937;-81
2023/03/10 10:29:17;;;;;;;;;;;2.00;99.90;;;;;;4977732;28;19926;-82
2023/03/10 10:32:00;;;;;;;;;;;2.10;99.90;;;;;;4965842;28;20278;-82
2023/03/10 10:34:26;;;;;;;;;;;2.10;99.90;;;;;;4959502;28;19926;-82
2023/03/10 10:36:54;;;;;;;;;;;2.20;99.90;;;;;;4958940;28;19932;-82
2023/03/10 10:39:24;;;;;;;;;;;2.30;99.90;;;;;;4986410;28;19934;-82
2023/03/10 10:41:50;;;;;;;;;;;2.40;99.90;;;;;;4969145;28;19925;-81
2023/03/10 10:44:16;;;;;;;;;;;2.40;99.90;;;;;;4986768;28;19942;-81
2023/03/10 10:46:52;;;;;;;;;;;2.40;99.90;;;;;;4964782;28;19930;-82
2023/03/10 10:49:25;;;;;;;;;;;2.40;99.90;;;;;;4982542;28;19925;-81
2023/03/10 10:51:56;;;;;;;;;;;2.30;99.90;;;;;;4979987;28;19926;-81
2023/03/10 10:54:27;;;;;;;;;;;2.30;99.90;;;;;;4975889;28;20283;-81
2023/03/10 10:56:54;;;;;;;;;;;2.30;99.90;;;;;;4958069;28;19926;-82
2023/03/10 10:59:22;;;;;;;;;;;2.30;99.90;;;;;;4979041;28;19933;-82
2023/03/10 11:01:49;;;;;;;;;;;2.30;99.90;;;;;;4982815;28;19929;-82
2023/03/10 11:04:15;;;;;;;;;;;2.30;99.90;;;;;;4952826;28;19937;-81
2023/03/10 11:06:40;;;;;;;;;;;2.30;99.90;;;;;;4988191;28;19926;-82
2023/03/10 11:09:10;;;;;;;;;;;2.30;99.90;;;;;;4964448;28;20283;-82
2023/03/10 11:11:48;;;;;;;;;;;2.30;99.90;;;;;;4988847;28;19977;-81
2023/03/10 11:14:27;;;;;;;;;;;2.20;99.90;;;;;;4971123;28;19926;-82
2023/03/10 11:16:52;;;;;;;;;;;2.20;99.90;;;;;;4957455;28;20433;-82
2023/03/10 11:19:21;;;;;;;;;;;2.20;99.90;;;;;;4989063;28;19926;-81
2023/03/10 11:21:50;;;;;;;;;;;2.20;99.90;;;;;;4974393;28;19980;-82
2023/03/10 11:24:20;;;;;;;;;;;2.30;99.90;;;;;;4991077;28;20377;-82
2023/03/10 11:26:52;;;;;;;;;;;2.30;99.90;;;;;;4990742;28;19965;-82
2023/03/10 11:29:23;;;;;;;;;;;2.30;99.90;;;;;;4977129;28;20297;-82
2023/03/10 11:31:48;;;;;;;;;;;2.30;99.90;;;;;;4980354;28;19937;-82
2023/03/10 11:34:14;;;;;;;;;;;2.30;99.90;;;;;;4973105;28;19930;-82
2023/03/10 11:36:55;;;;;;;;;;;2.30;99.90;;;;;;4974082;28;19956;-82
2023/03/10 11:39:29;;;;;;;;;;;2.30;99.90;;;;;;4973992;28;20440;-82
2023/03/10 11:42:02;;;;;;;;;;;2.30;99.90;;;;;;4988521;28;19925;-81
2023/03/10 11:44:48;;;;;;;;;;;2.30;99.90;;;;;;4970623;28;20297;-81
2023/03/10 11:47:17;;;;;;;;;;;2.40;99.90;;;;;;4954725;28;19926;-82
2023/03/10 11:49:46;;;;;;;;;;;2.40;99.90;;;;;;4963132;28;20398;-82
2023/03/10 11:52:14;;;;;;;;;;;2.40;99.90;;;;;;4956054;28;19929;-82
2023/03/10 11:54:53;;;;;;;;;;;2.40;99.90;;;;;;4957324;28;19976;-80
2023/03/10 11:57:22;;;;;;;;;;;2.40;99.90;;;;;;4973457;28;19929;-82
2023/03/10 11:59:59;;;;;;;;;;;2.40;99.90;;;;;;4995684;28;19929;-82
2023/03/10 12:02:43;;;;;;;;;;;2.40;99.90;;;;;;4988361;28;19930;-82
2023/03/10 12:05:22;;;;;;;;;;;2.40;99.90;;;;;;4943512;28;20378;-83
2023/03/10 12:07:50;;;;;;;;;;;2.40;99.90;;;;;;4940184;28;19930;-82
2023/03/10 12:10:17;;;;;;;;;;;2.40;99.90;;;;;;4971946;28;19965;-82
2023/03/10 12:12:44;;;;;;;;;;;2.50;99.90;;;;;;5002561;28;19973;-82
2023/03/10 12:15:15;;;;;;;;;;;2.40;99.90;;;;;;4987084;28;20409;-82
2023/03/10 12:17:41;;;;;;;;;;;2.40;99.90;;;;;;4978039;28;19926;-83
2023/03/10 12:20:21;;;;;;;;;;;2.50;99.90;;;;;;4983805;28;19976;-82
2023/03/10 12:22:50;;;;;;;;;;;2.40;99.90;;;;;;4986566;28;19933;-82
2023/03/10 12:25:28;;;;;;;;;;;2.40;99.90;;;;;;4998225;28;20451;-82
2023/03/10 12:28:06;;;;;;;;;;;2.40;99.90;;;;;;4986247;28;19937;-82
2023/03/10 12:30:45;;;;;;;;;;;2.40;99.90;;;;;;4961264;28;20348;-82
2023/03/10 12:33:29;;;;;;;;;;;2.40;99.90;;;;;;4961039;28;19930;-82
2023/03/10 12:36:05;;;;;;;;;;;2.40;99.90;;;;;;4988434;28;20349;-82
2023/03/10 12:38:40;;;;;;;;;;;2.40;99.90;;;;;;4987737;28;20457;-82
2023/03/10 12:41:06;;;;;;;;;;;2.40;99.90;;;;;;4964026;28;20420;-81
2023/03/10 12:43:35;;;;;;;;;;;2.40;99.90;;;;;;4988455;28;19992;-82
2023/03/10 12:46:01;;;;;;;;;;;2.30;99.90;;;;;;4975763;28;19925;-82
2023/03/10 12:48:27;;;;;;;;;;;2.30;99.90;;;;;;4975246;28;20009;-83
2023/03/10 12:50:55;;;;;;;;;;;2.30;99.90;;;;;;4969404;28;20025;-81
2023/03/10 12:53:38;;;;;;;;;;;2.30;99.90;;;;;;4970980;28;20293;-82
2023/03/10 12:56:13;;;;;;;;;;;2.30;99.90;;;;;;4959682;28;20389;-82
2023/03/10 12:58:57;;;;;;;;;;;2.30;99.90;;;;;;4991881;28;19937;-82
2023/03/10 13:01:25;;;;;;;;;;;2.20;99.90;;;;;;4974219;28;19926;-82
2023/03/10 13:03:52;;;;;;;;;;;2.20;99.90;;;;;;4960304;28;19926;-81
2023/03/10 13:06:20;;;;;;;;;;;2.20;99.90;;;;;;4991629;28;19930;-81
2023/03/10 13:08:52;;;;;;;;;;;2.20;99.90;;;;;;4978404;28;19925;-82
2023/03/10 13:11:36;;;;;;;;;;;2.20;99.90;;;;;;4949939;28;20032;-82
2023/03/10 13:14:08;;;;;;;;;;;2.20;99.90;;;;;;4976755;28;19925;-82
2023/03/10 13:16:35;;;;;;;;;;;2.20;99.90;;;;;;4992447;28;19926;-82
2023/03/10 13:19:02;;;;;;;;;;;2.20;99.90;;;;;;4991653;28;19926;-82
2023/03/10 13:21:28;;;;;;;;;;;2.20;99.90;;;;;;4982603;28;20042;-82
2023/03/10 13:23:54;;;;;;;;;;;2.10;99.90;;;;;;4968942;28;20484;-82
2023/03/10 13:26:20;;;;;;;;;;;2.10;99.90;;;;;;4975976;28;19926;-82
2023/03/10 13:28:57;;;;;;;;;;;2.10;99.90;;;;;;5007053;28;20021;-82
2023/03/10 13:31:24;;;;;;;;;;;2.10;99.90;;;;;;4984897;28;19937;-82
2023/03/10 13:33:52;;;;;;;;;;;2.10;99.90;;;;;;4973209;28;19926;-81
2023/03/10 13:36:20;;;;;;;;;;;2.10;99.90;;;;;;4986930;28;19929;-82
2023/03/10 13:38:46;;;;;;;;;;;2.00;99.90;;;;;;4958591;28;19933;-81
2023/03/10 13:41:11;;;;;;;;;;;2.00;99.90;;;;;;5005642;28;20378;-81
2023/03/10 13:43:41;;;;;;;;;;;2.00;99.90;;;;;;4990695;28;19933;-82
2023/03/10 13:46:14;;;;;;;;;;;2.00;99.90;;;;;;4991124;28;19925;-82
2023/03/10 13:48:40;;;;;;;;;;;2.00;99.90;;;;;;4989653;28;20069;-81
2023/03/10 13:51:07;;;;;;;;;;;2.10;99.90;;;;;;4949806;28;20028;-81
2023/03/10 13:53:33;;;;;;;;;;;2.00;99.90;;;;;;4979346;28;19934;-81
2023/03/10 13:55:58;;;;;;;;;;;2.00;99.90;;;;;;4981201;28;19930;-82
2023/03/10 13:58:24;;;;;;;;;;;2.10;99.90;;;;;;4973029;28;19934;-81
2023/03/10 14:00:53;;;;;;;;;;;2.10;99.90;;;;;;4958567;28;20313;-82
2023/03/10 14:03:18;;;;;;;;;;;2.10;99.90;;;;;;4958155;28;19941;-81
2023/03/10 14:05:45;;;;;;;;;;;2.10;99.90;;;;;;4980820;28;19925;-82
2023/03/10 14:08:18;;;;;;;;;;;2.20;99.90;;;;;;4977339;28;19930;-81
2023/03/10 14:10:44;;;;;;;;;;;2.20;99.90;;;;;;4982179;28;19926;-82
2023/03/10 14:13:42;;;;;;;;;;;2.20;99.90;;;;;;4990897;28;19984;-81
2023/03/10 14:16:08;;;;;;;;;;;2.10;99.90;;;;;;4958855;28;19927;-81
2023/03/10 14:18:38;;;;;;;;;;;2.20;99.90;;;;;;4971130;28;20028;-81
2023/03/10 14:21:22;;;;;;;;;;;2.20;99.90;;;;;;4978915;28;19977;-81
2023/03/10 14:23:47;;;;;;;;;;;2.20;99.90;;;;;;4956287;28;19926;-81
2023/03/10 14:26:15;;;;;;;;;;;2.20;99.90;;;;;;4973573;28;19979;-81
2023/03/10 14:28:41;;;;;;;;;;;2.20;99.90;;;;;;4994339;28;20490;-81
2023/03/10 14:31:18;;;;;;;;;;;2.20;99.90;;;;;;4960510;28;19930;-81
2023/03/10 14:33:44;;;;;;;;;;;2.20;99.90;;;;;;4971538;28;19933;-81